sensor_id;sensor_type;location;lat;lon;timestamp;pressure;altitude;pressure_sealevel;temperature;humidity
12219;BME280;6172;42.646;23.344;2023-04-09T00:01:50;94842.22;;;4.16;100.00
12219;BME280;6172;42.646;23.344;2023-04-09T00:04:17;94843.88;;;3.94;100.00
12219;BME280;6172;42.646;23.344;2023-04-09T00:06:45;94842.50;;;4.11;100.00
12219;BME280;6172;42.646;23.344;2023-04-09T00:09:12;94855.78;;;4.23;100.00
12219;BME280;6172;42.646;23.344;2023-04-09T00:11:39;94847.44;;;4.05;100.00
12219;BME280;6172;42.646;23.344;2023-04-09T00:14:06;94856.28;;;4.02;100.00
12219;BME280;6172;42.646;23.344;2023-04-09T00:16:36;94851.84;;;4.17;100.00
12219;BME280;6172;42.646;23.344;2023-04-09T00:19:03;94848.72;;;4.11;100.00
12219;BME280;6172;42.646;23.344;2023-04-09T00:21:30;94848.84;;;4.22;100.00
12219;BME280;6172;42.646;23.344;2023-04-09T00:23:59;94850.69;;;4.14;100.00
12219;BME280;6172;42.646;23.344;2023-04-09T00:26:26;94846.94;;;4.26;100.00
12219;BME280;6172;42.646;23.344;2023-04-09T00:28:53;94842.22;;;4.16;100.00
12219;BME280;6172;42.646;23.344;2023-04-09T00:31:23;94837.44;;;4.06;100.00
12219;BME280;6172;42.646;23.344;2023-04-09T00:33:52;94842.50;;;4.11;100.00
12219;BME280;6172;42.646;23.344;2023-04-09T00:36:21;94844.09;;;4.12;100.00
12219;BME280;6172;42.646;23.344;2023-04-09T00:38:49;94844.91;;;4.16;100.00
12219;BME280;6172;42.646;23.344;2023-04-09T00:41:20;94846.06;;;4.15;100.00
12219;BME280;6172;42.646;23.344;2023-04-09T00:43:47;94842.78;;;4.32;100.00
12219;BME280;6172;42.646;23.344;2023-04-09T00:46:13;94844.75;;;4.35;100.00
12219;BME280;6172;42.646;23.344;2023-04-09T00:48:41;94837.31;;;4.25;100.00
12219;BME280;6172;42.646;23.344;2023-04-09T00:51:08;94842.94;;;4.13;100.00
12219;BME280;6172;42.646;23.344;2023-04-09T00:53:35;94837.19;;;4.14;100.00
12219;BME280;6172;42.646;23.344;2023-04-09T00:56:03;94840.63;;;4.11;100.00
12219;BME280;6172;42.646;23.344;2023-04-09T00:58:32;94847.00;;;4.29;100.00
12219;BME280;6172;42.646;23.344;2023-04-09T01:00:59;94845.78;;;4.23;100.00
12219;BME280;6172;42.646;23.344;2023-04-09T01:03:27;94831.78;;;4.14;100.00
12219;BME280;6172;42.646;23.344;2023-04-09T01:06:01;94825.31;;;4.22;100.00
12219;BME280;6172;42.646;23.344;2023-04-09T01:08:37;94850.38;;;4.23;100.00
12219;BME280;6172;42.646;23.344;2023-04-09T01:11:14;94846.88;;;4.19;100.00
12219;BME280;6172;42.646;23.344;2023-04-09T01:13:49;94854.44;;;4.10;100.00
12219;BME280;6172;42.646;23.344;2023-04-09T01:16:22;94843.94;;;4.01;100.00
12219;BME280;6172;42.646;23.344;2023-04-09T01:18:55;94844.31;;;4.00;100.00
12219;BME280;6172;42.646;23.344;2023-04-09T01:21:27;94852.41;;;4.00;100.00
12219;BME280;6172;42.646;23.344;2023-04-09T01:24:01;94840.00;;;3.92;100.00
12219;BME280;6172;42.646;23.344;2023-04-09T01:26:40;94844.28;;;3.96;100.00
12219;BME280;6172;42.646;23.344;2023-04-09T01:29:14;94841.44;;;3.86;100.00
12219;BME280;6172;42.646;23.344;2023-04-09T01:31:44;94854.28;;;3.96;100.00
12219;BME280;6172;42.646;23.344;2023-04-09T01:34:13;94849.63;;;3.93;100.00
12219;BME280;6172;42.646;23.344;2023-04-09T01:36:40;94852.69;;;3.91;100.00
12219;BME280;6172;42.646;23.344;2023-04-09T01:39:10;94849.19;;;3.87;100.00
12219;BME280;6172;42.646;23.344;2023-04-09T01:41:38;94851.16;;;3.94;100.00
12219;BME280;6172;42.646;23.344;2023-04-09T01:44:07;94855.09;;;4.00;100.00
12219;BME280;6172;42.646;23.344;2023-04-09T01:46:38;94855.22;;;4.10;100.00
12219;BME280;6172;42.646;23.344;2023-04-09T01:49:06;94860.06;;;3.98;100.00
12219;BME280;6172;42.646;23.344;2023-04-09T01:51:33;94857.06;;;4.03;100.00
12219;BME280;6172;42.646;23.344;2023-04-09T01:54:02;94847.88;;;4.07;100.00
12219;BME280;6172;42.646;23.344;2023-04-09T01:56:39;94853.00;;;4.16;100.00
12219;BME280;6172;42.646;23.344;2023-04-09T01:59:06;94843.31;;;4.11;100.00
12219;BME280;6172;42.646;23.344;2023-04-09T02:01:37;94848.41;;;4.20;100.00
12219;BME280;6172;42.646;23.344;2023-04-09T02:04:10;94842.94;;;4.13;100.00
12219;BME280;6172;42.646;23.344;2023-04-09T02:06:44;94848.06;;;4.21;100.00
12219;BME280;6172;42.646;23.344;2023-04-09T02:09:16;94858.06;;;4.21;100.00
12219;BME280;6172;42.646;23.344;2023-04-09T02:11:45;94856.59;;;4.27;100.00
12219;BME280;6172;42.646;23.344;2023-04-09T02:14:14;94857.81;;;4.33;100.00
12219;BME280;6172;42.646;23.344;2023-04-09T02:16:41;94865.47;;;4.27;100.00
12219;BME280;6172;42.646;23.344;2023-04-09T02:19:11;94853.16;;;4.30;100.00
12219;BME280;6172;42.646;23.344;2023-04-09T02:21:38;94845.84;;;4.30;100.00
12219;BME280;6172;42.646;23.344;2023-04-09T02:24:05;94851.25;;;4.34;100.00
12219;BME280;6172;42.646;23.344;2023-04-09T02:26:32;94843.53;;;4.32;100.00
12219;BME280;6172;42.646;23.344;2023-04-09T02:28:59;94845.47;;;4.32;100.00
12219;BME280;6172;42.646;23.344;2023-04-09T02:31:26;94843.53;;;4.32;100.00
12219;BME280;6172;42.646;23.344;2023-04-09T02:33:56;94840.00;;;4.25;100.00
12219;BME280;6172;42.646;23.344;2023-04-09T02:36:25;94837.31;;;4.25;100.00
12219;BME280;6172;42.646;23.344;2023-04-09T02:38:52;94831.53;;;4.26;100.00
12219;BME280;6172;42.646;23.344;2023-04-09T02:41:20;94826.66;;;4.06;100.00
12219;BME280;6172;42.646;23.344;2023-04-09T02:43:49;94830.53;;;4.08;100.00
12219;BME280;6172;42.646;23.344;2023-04-09T02:46:16;94832.28;;;3.94;100.00
12219;BME280;6172;42.646;23.344;2023-04-09T02:48:43;94838.19;;;4.03;100.00
12219;BME280;6172;42.646;23.344;2023-04-09T02:51:12;94834.03;;;4.09;100.00
12219;BME280;6172;42.646;23.344;2023-04-09T02:53:42;94824.19;;;3.94;100.00
12219;BME280;6172;42.646;23.344;2023-04-09T02:56:10;94820.84;;;3.71;100.00
12219;BME280;6172;42.646;23.344;2023-04-09T02:58:36;94825.41;;;3.67;100.00
12219;BME280;6172;42.646;23.344;2023-04-09T03:01:04;94827.75;;;3.68;100.00
12219;BME280;6172;42.646;23.344;2023-04-09T03:03:31;94832.47;;;3.75;100.00
12219;BME280;6172;42.646;23.344;2023-04-09T03:05:58;94824.31;;;3.71;100.00
12219;BME280;6172;42.646;23.344;2023-04-09T03:08:25;94833.94;;;3.69;100.00
12219;BME280;6172;42.646;23.344;2023-04-09T03:10:53;94828.69;;;3.83;100.00
12219;BME280;6172;42.646;23.344;2023-04-09T03:13:20;94831.16;;;3.62;100.00
12219;BME280;6172;42.646;23.344;2023-04-09T03:15:50;94830.41;;;3.65;100.00
12219;BME280;6172;42.646;23.344;2023-04-09T03:18:18;94829.53;;;3.57;100.00
12219;BME280;6172;42.646;23.344;2023-04-09T03:20:45;94828.44;;;3.62;100.00
12219;BME280;6172;42.646;23.344;2023-04-09T03:23:12;94829.34;;;3.73;100.00
12219;BME280;6172;42.646;23.344;2023-04-09T03:25:39;94837.00;;;3.71;100.00
12219;BME280;6172;42.646;23.344;2023-04-09T03:28:08;94826.06;;;3.57;100.00
12219;BME280;6172;42.646;23.344;2023-04-09T03:30:35;94824.50;;;3.56;100.00
12219;BME280;6172;42.646;23.344;2023-04-09T03:33:02;94840.59;;;3.49;100.00
12219;BME280;6172;42.646;23.344;2023-04-09T03:35:29;94827.31;;;3.63;100.00
12219;BME280;6172;42.646;23.344;2023-04-09T03:37:56;94828.44;;;3.62;100.00
12219;BME280;6172;42.646;23.344;2023-04-09T03:40:23;94828.06;;;3.33;100.00
12219;BME280;6172;42.646;23.344;2023-04-09T03:42:50;94829.56;;;3.31;100.00
12219;BME280;6172;42.646;23.344;2023-04-09T03:45:20;94833.16;;;3.39;100.00
12219;BME280;6172;42.646;23.344;2023-04-09T03:47:47;94843.00;;;3.57;100.00
12219;BME280;6172;42.646;23.344;2023-04-09T03:50:14;94827.66;;;3.61;100.00
12219;BME280;6172;42.646;23.344;2023-04-09T03:52:41;94841.28;;;3.72;100.00
12219;BME280;6172;42.646;23.344;2023-04-09T03:55:09;94847.88;;;3.78;100.00
12219;BME280;6172;42.646;23.344;2023-04-09T03:57:36;94849.38;;;3.72;100.00
12219;BME280;6172;42.646;23.344;2023-04-09T04:00:04;94847.06;;;3.74;100.00
12219;BME280;6172;42.646;23.344;2023-04-09T04:02:33;94854.88;;;3.82;100.00
12219;BME280;6172;42.646;23.344;2023-04-09T04:05:00;94849.56;;;3.89;100.00
12219;BME280;6172;42.646;23.344;2023-04-09T04:07:27;94848.84;;;3.92;100.00
12219;BME280;6172;42.646;23.344;2023-04-09T04:09:55;94849.28;;;3.98;100.00
12219;BME280;6172;42.646;23.344;2023-04-09T04:12:22;94840.38;;;3.94;100.00
12219;BME280;6172;42.646;23.344;2023-04-09T04:14:50;94828.91;;;3.67;100.00
12219;BME280;6172;42.646;23.344;2023-04-09T04:17:23;94835.63;;;3.84;100.00
12219;BME280;6172;42.646;23.344;2023-04-09T04:19:52;94849.69;;;3.96;100.00
12219;BME280;6172;42.646;23.344;2023-04-09T04:22:21;94847.78;;;4.00;100.00
12219;BME280;6172;42.646;23.344;2023-04-09T04:24:48;94854.38;;;4.03;100.00
12219;BME280;6172;42.646;23.344;2023-04-09T04:27:15;94841.84;;;3.88;100.00
12219;BME280;6172;42.646;23.344;2023-04-09T04:29:42;94855.88;;;4.00;100.00
12219;BME280;6172;42.646;23.344;2023-04-09T04:32:09;94852.22;;;4.15;100.00
12219;BME280;6172;42.646;23.344;2023-04-09T04:34:36;94852.91;;;4.09;100.00
12219;BME280;6172;42.646;23.344;2023-04-09T04:37:05;94844.09;;;4.12;100.00
12219;BME280;6172;42.646;23.344;2023-04-09T04:39:32;94849.03;;;4.06;100.00
12219;BME280;6172;42.646;23.344;2023-04-09T04:41:59;94849.56;;;4.19;100.00
12219;BME280;6172;42.646;23.344;2023-04-09T04:44:27;94847.81;;;4.04;100.00
12219;BME280;6172;42.646;23.344;2023-04-09T04:46:55;94851.91;;;4.20;100.00
12219;BME280;6172;42.646;23.344;2023-04-09T04:49:22;94852.28;;;4.19;100.00
12219;BME280;6172;42.646;23.344;2023-04-09T04:51:51;94855.81;;;4.26;100.00
12219;BME280;6172;42.646;23.344;2023-04-09T04:54:19;94846.53;;;4.24;100.00
12219;BME280;6172;42.646;23.344;2023-04-09T04:56:46;94858.63;;;4.37;100.00
12219;BME280;6172;42.646;23.344;2023-04-09T04:59:14;94854.81;;;4.41;100.00
12219;BME280;6172;42.646;23.344;2023-04-09T05:01:41;94852.03;;;4.34;100.00
12219;BME280;6172;42.646;23.344;2023-04-09T05:04:08;94852.91;;;4.45;100.00
12219;BME280;6172;42.646;23.344;2023-04-09T05:06:35;94857.75;;;4.66;100.00
12219;BME280;6172;42.646;23.344;2023-04-09T05:09:03;94849.34;;;4.74;100.00
12219;BME280;6172;42.646;23.344;2023-04-09T05:11:35;94849.03;;;4.83;100.00
12219;BME280;6172;42.646;23.344;2023-04-09T05:14:03;94850.31;;;4.96;100.00
12219;BME280;6172;42.646;23.344;2023-04-09T05:16:31;94853.47;;;5.05;100.00
12219;BME280;6172;42.646;23.344;2023-04-09T05:18:58;94836.47;;;5.01;100.00
12219;BME280;6172;42.646;23.344;2023-04-09T05:21:25;94857.03;;;5.16;100.00
12219;BME280;6172;42.646;23.344;2023-04-09T05:23:51;94860.13;;;5.18;100.00
12219;BME280;6172;42.646;23.344;2023-04-09T05:26:19;94855.91;;;5.20;100.00
12219;BME280;6172;42.646;23.344;2023-04-09T05:28:48;94845.22;;;5.38;100.00
12219;BME280;6172;42.646;23.344;2023-04-09T05:31:15;94844.72;;;5.22;100.00
12219;BME280;6172;42.646;23.344;2023-04-09T05:33:42;94840.31;;;5.54;100.00
12219;BME280;6172;42.646;23.344;2023-04-09T05:36:13;94839.84;;;5.45;100.00
12219;BME280;6172;42.646;23.344;2023-04-09T05:38:41;94847.41;;;5.80;100.00
12219;BME280;6172;42.646;23.344;2023-04-09T05:41:10;94835.41;;;5.77;100.00
12219;BME280;6172;42.646;23.344;2023-04-09T05:43:37;94838.47;;;5.68;100.00
12219;BME280;6172;42.646;23.344;2023-04-09T05:46:05;94841.09;;;5.61;100.00
12219;BME280;6172;42.646;23.344;2023-04-09T05:48:34;94848.78;;;5.52;100.00
12219;BME280;6172;42.646;23.344;2023-04-09T05:51:01;94856.91;;;5.52;100.00
12219;BME280;6172;42.646;23.344;2023-04-09T05:53:30;94839.53;;;5.50;100.00
12219;BME280;6172;42.646;23.344;2023-04-09T05:55:57;94850.13;;;5.83;100.00
12219;BME280;6172;42.646;23.344;2023-04-09T05:58:28;94841.72;;;6.06;100.00
12219;BME280;6172;42.646;23.344;2023-04-09T06:00:57;94838.78;;;6.53;100.00
12219;BME280;6172;42.646;23.344;2023-04-09T06:03:26;94832.63;;;6.77;100.00
12219;BME280;6172;42.646;23.344;2023-04-09T06:05:53;94843.47;;;6.80;100.00
12219;BME280;6172;42.646;23.344;2023-04-09T06:08:20;94838.84;;;6.91;100.00
12219;BME280;6172;42.646;23.344;2023-04-09T06:10:47;94825.28;;;6.84;100.00
12219;BME280;6172;42.646;23.344;2023-04-09T06:13:14;94831.06;;;6.62;100.00
12219;BME280;6172;42.646;23.344;2023-04-09T06:15:41;94831.06;;;6.55;100.00
12219;BME280;6172;42.646;23.344;2023-04-09T06:18:08;94834.56;;;6.69;100.00
12219;BME280;6172;42.646;23.344;2023-04-09T06:20:37;94831.47;;;6.81;100.00
12219;BME280;6172;42.646;23.344;2023-04-09T06:23:04;94829.91;;;6.59;100.00
12219;BME280;6172;42.646;23.344;2023-04-09T06:25:31;94831.44;;;6.64;100.00
12219;BME280;6172;42.646;23.344;2023-04-09T06:27:58;94836.13;;;6.91;100.00
12219;BME280;6172;42.646;23.344;2023-04-09T06:30:25;94830.72;;;7.19;100.00
12219;BME280;6172;42.646;23.344;2023-04-09T06:32:52;94826.03;;;7.27;100.00
12219;BME280;6172;42.646;23.344;2023-04-09T06:35:27;94822.81;;;7.91;100.00
12219;BME280;6172;42.646;23.344;2023-04-09T06:38:07;94833.50;;;8.34;100.00
12219;BME280;6172;42.646;23.344;2023-04-09T06:40:36;94818.81;;;8.21;100.00
12219;BME280;6172;42.646;23.344;2023-04-09T06:43:04;94817.59;;;8.32;100.00
12219;BME280;6172;42.646;23.344;2023-04-09T06:45:31;94835.84;;;8.39;100.00
12219;BME280;6172;42.646;23.344;2023-04-09T06:47:59;94824.44;;;9.19;100.00
12219;BME280;6172;42.646;23.344;2023-04-09T06:50:26;94814.78;;;10.56;100.00
12219;BME280;6172;42.646;23.344;2023-04-09T06:52:56;94812.72;;;11.17;100.00
12219;BME280;6172;42.646;23.344;2023-04-09T06:55:27;94817.50;;;12.21;100.00
12219;BME280;6172;42.646;23.344;2023-04-09T06:57:54;94822.59;;;11.99;88.67
12219;BME280;6172;42.646;23.344;2023-04-09T07:00:33;94831.78;;;10.67;93.08
12219;BME280;6172;42.646;23.344;2023-04-09T07:03:00;94819.56;;;9.81;100.00
12219;BME280;6172;42.646;23.344;2023-04-09T07:05:30;94836.84;;;9.64;100.00
12219;BME280;6172;42.646;23.344;2023-04-09T07:07:58;94832.69;;;10.27;97.14
12219;BME280;6172;42.646;23.344;2023-04-09T07:10:29;94819.75;;;9.23;100.00
12219;BME280;6172;42.646;23.344;2023-04-09T07:12:56;94835.31;;;8.65;100.00
12219;BME280;6172;42.646;23.344;2023-04-09T07:15:24;94838.28;;;8.81;100.00
12219;BME280;6172;42.646;23.344;2023-04-09T07:17:51;94840.50;;;8.42;100.00
12219;BME280;6172;42.646;23.344;2023-04-09T07:20:18;94828.56;;;8.87;100.00
12219;BME280;6172;42.646;23.344;2023-04-09T07:22:44;94829.88;;;8.65;100.00
12219;BME280;6172;42.646;23.344;2023-04-09T07:25:11;94829.19;;;9.93;100.00
12219;BME280;6172;42.646;23.344;2023-04-09T07:27:40;94835.72;;;10.63;96.87
12219;BME280;6172;42.646;23.344;2023-04-09T07:30:08;94838.72;;;10.98;84.56
12219;BME280;6172;42.646;23.344;2023-04-09T07:32:36;94826.72;;;10.92;83.30
12219;BME280;6172;42.646;23.344;2023-04-09T07:35:05;94822.63;;;11.07;79.79
12219;BME280;6172;42.646;23.344;2023-04-09T07:37:34;94827.13;;;10.64;83.61
12219;BME280;6172;42.646;23.344;2023-04-09T07:40:01;94829.44;;;10.05;94.51
12219;BME280;6172;42.646;23.344;2023-04-09T07:42:29;94828.00;;;9.53;93.52
12219;BME280;6172;42.646;23.344;2023-04-09T07:44:58;94859.09;;;9.96;99.56
12219;BME280;6172;42.646;23.344;2023-04-09T07:47:25;94835.31;;;10.00;96.42
12219;BME280;6172;42.646;23.344;2023-04-09T07:49:53;94836.44;;;10.06;96.97
12219;BME280;6172;42.646;23.344;2023-04-09T07:52:20;94846.13;;;10.98;90.11
12219;BME280;6172;42.646;23.344;2023-04-09T07:54:48;94854.81;;;11.42;79.92
12219;BME280;6172;42.646;23.344;2023-04-09T07:57:18;94848.06;;;11.24;77.86
12219;BME280;6172;42.646;23.344;2023-04-09T07:59:48;94851.94;;;11.95;76.06
12219;BME280;6172;42.646;23.344;2023-04-09T08:02:16;94857.72;;;12.20;71.93
12219;BME280;6172;42.646;23.344;2023-04-09T08:04:43;94856.00;;;11.87;71.29
12219;BME280;6172;42.646;23.344;2023-04-09T08:07:10;94857.19;;;11.63;72.99
12219;BME280;6172;42.646;23.344;2023-04-09T08:09:37;94850.84;;;11.20;73.50
12219;BME280;6172;42.646;23.344;2023-04-09T08:12:04;94853.34;;;11.38;78.54
12219;BME280;6172;42.646;23.344;2023-04-09T08:14:31;94864.47;;;11.70;76.67
12219;BME280;6172;42.646;23.344;2023-04-09T08:16:58;94860.94;;;11.23;75.82
12219;BME280;6172;42.646;23.344;2023-04-09T08:19:27;94855.59;;;11.16;79.12
12219;BME280;6172;42.646;23.344;2023-04-09T08:21:56;94857.50;;;10.93;80.48
12219;BME280;6172;42.646;23.344;2023-04-09T08:24:23;94859.75;;;10.41;85.86
12219;BME280;6172;42.646;23.344;2023-04-09T08:26:50;94861.97;;;10.50;83.22
12219;BME280;6172;42.646;23.344;2023-04-09T08:29:18;94862.75;;;9.79;91.25
12219;BME280;6172;42.646;23.344;2023-04-09T08:31:47;94860.69;;;9.50;97.60
12219;BME280;6172;42.646;23.344;2023-04-09T08:34:14;94863.03;;;8.97;100.00
12219;BME280;6172;42.646;23.344;2023-04-09T08:36:48;94876.34;;;8.84;100.00
12219;BME280;6172;42.646;23.344;2023-04-09T08:39:15;94867.94;;;8.58;100.00
12219;BME280;6172;42.646;23.344;2023-04-09T08:41:46;94874.28;;;8.23;100.00
12219;BME280;6172;42.646;23.344;2023-04-09T08:44:15;94859.25;;;7.90;100.00
12219;BME280;6172;42.646;23.344;2023-04-09T08:46:44;94878.53;;;8.24;100.00
12219;BME280;6172;42.646;23.344;2023-04-09T08:49:11;94880.09;;;8.29;100.00
12219;BME280;6172;42.646;23.344;2023-04-09T08:51:38;94875.81;;;8.28;100.00
12219;BME280;6172;42.646;23.344;2023-04-09T08:54:07;94870.75;;;8.30;100.00
12219;BME280;6172;42.646;23.344;2023-04-09T08:56:34;94872.69;;;8.33;100.00
12219;BME280;6172;42.646;23.344;2023-04-09T08:59:04;94874.22;;;8.34;100.00
12219;BME280;6172;42.646;23.344;2023-04-09T09:01:31;94875.81;;;8.24;100.00
12219;BME280;6172;42.646;23.344;2023-04-09T09:03:59;94862.53;;;8.54;100.00
12219;BME280;6172;42.646;23.344;2023-04-09T09:06:31;94862.56;;;8.44;100.00
12219;BME280;6172;42.646;23.344;2023-04-09T09:09:00;94872.91;;;8.73;100.00
12219;BME280;6172;42.646;23.344;2023-04-09T09:11:29;94854.19;;;8.86;100.00
12219;BME280;6172;42.646;23.344;2023-04-09T09:13:57;94854.59;;;9.35;100.00
12219;BME280;6172;42.646;23.344;2023-04-09T09:16:24;94846.81;;;9.34;100.00
12219;BME280;6172;42.646;23.344;2023-04-09T09:18:51;94839.47;;;9.75;100.00
12219;BME280;6172;42.646;23.344;2023-04-09T09:21:21;94841.94;;;9.99;100.00
12219;BME280;6172;42.646;23.344;2023-04-09T09:23:48;94850.66;;;10.21;100.00
12219;BME280;6172;42.646;23.344;2023-04-09T09:26:17;94835.97;;;9.74;95.63
12219;BME280;6172;42.646;23.344;2023-04-09T09:28:47;94839.59;;;9.61;100.00
12219;BME280;6172;42.646;23.344;2023-04-09T09:31:15;94835.84;;;9.85;95.68
12219;BME280;6172;42.646;23.344;2023-04-09T09:33:45;94841.91;;;10.36;87.90
12219;BME280;6172;42.646;23.344;2023-04-09T09:36:12;94842.72;;;10.33;87.59
12219;BME280;6172;42.646;23.344;2023-04-09T09:38:55;94845.16;;;10.55;83.73
12219;BME280;6172;42.646;23.344;2023-04-09T09:41:28;94825.63;;;10.86;82.89
12219;BME280;6172;42.646;23.344;2023-04-09T09:43:56;94816.94;;;11.21;78.61
12219;BME280;6172;42.646;23.344;2023-04-09T09:46:24;94820.84;;;10.94;75.84
12219;BME280;6172;42.646;23.344;2023-04-09T09:48:55;94839.72;;;10.85;75.03
12219;BME280;6172;42.646;23.344;2023-04-09T09:51:25;94810.50;;;11.08;73.06
12219;BME280;6172;42.646;23.344;2023-04-09T09:54:06;94803.94;;;11.06;74.61
12219;BME280;6172;42.646;23.344;2023-04-09T09:56:36;94809.69;;;11.11;71.83
12219;BME280;6172;42.646;23.344;2023-04-09T09:59:16;94822.34;;;10.98;71.87
12219;BME280;6172;42.646;23.344;2023-04-09T10:01:47;94816.72;;;11.35;68.86
12219;BME280;6172;42.646;23.344;2023-04-09T10:04:15;94811.75;;;11.53;66.93
12219;BME280;6172;42.646;23.344;2023-04-09T10:06:45;94805.91;;;11.51;66.94
12219;BME280;6172;42.646;23.344;2023-04-09T10:09:12;94802.91;;;11.19;67.82
12219;BME280;6172;42.646;23.344;2023-04-09T10:11:40;94803.06;;;11.58;67.48
12219;BME280;6172;42.646;23.344;2023-04-09T10:14:12;94806.56;;;12.01;64.95
12219;BME280;6172;42.646;23.344;2023-04-09T10:16:45;94786.97;;;12.06;64.92
12219;BME280;6172;42.646;23.344;2023-04-09T10:19:15;94774.63;;;11.98;62.36
12219;BME280;6172;42.646;23.344;2023-04-09T10:21:50;94774.00;;;12.10;61.72
12219;BME280;6172;42.646;23.344;2023-04-09T10:24:19;94781.69;;;11.76;63.11
12219;BME280;6172;42.646;23.344;2023-04-09T10:26:48;94789.38;;;11.81;62.06
12219;BME280;6172;42.646;23.344;2023-04-09T10:29:16;94777.94;;;12.09;61.78
12219;BME280;6172;42.646;23.344;2023-04-09T10:31:50;94788.13;;;12.25;60.62
12219;BME280;6172;42.646;23.344;2023-04-09T10:34:23;94795.06;;;12.29;59.34
12219;BME280;6172;42.646;23.344;2023-04-09T10:36:55;94776.38;;;12.08;60.34
12219;BME280;6172;42.646;23.344;2023-04-09T10:39:25;94776.09;;;11.83;59.72
12219;BME280;6172;42.646;23.344;2023-04-09T10:41:54;94772.16;;;11.84;61.22
12219;BME280;6172;42.646;23.344;2023-04-09T10:44:24;94771.69;;;11.89;60.72
12219;BME280;6172;42.646;23.344;2023-04-09T10:46:53;94773.38;;;12.22;59.57
12219;BME280;6172;42.646;23.344;2023-04-09T10:49:21;94766.56;;;12.30;59.05
12219;BME280;6172;42.646;23.344;2023-04-09T10:51:53;94758.34;;;12.30;58.47
12219;BME280;6172;42.646;23.344;2023-04-09T10:54:43;94756.47;;;11.69;61.20
12219;BME280;6172;42.646;23.344;2023-04-09T10:57:13;94760.91;;;11.82;59.94
12219;BME280;6172;42.646;23.344;2023-04-09T10:59:44;94744.03;;;11.87;59.76
12219;BME280;6172;42.646;23.344;2023-04-09T11:02:47;94749.84;;;11.89;59.87
12219;BME280;6172;42.646;23.344;2023-04-09T11:05:27;94742.97;;;11.81;59.76
12219;BME280;6172;42.646;23.344;2023-04-09T11:08:03;94738.34;;;11.59;58.89
12219;BME280;6172;42.646;23.344;2023-04-09T11:10:30;94749.84;;;11.47;60.55
12219;BME280;6172;42.646;23.344;2023-04-09T11:12:59;94734.78;;;10.93;67.35
12219;BME280;6172;42.646;23.344;2023-04-09T11:15:27;94738.84;;;10.58;76.72
12219;BME280;6172;42.646;23.344;2023-04-09T11:17:55;94738.41;;;10.33;82.26
12219;BME280;6172;42.646;23.344;2023-04-09T11:20:24;94749.81;;;10.24;80.64
12219;BME280;6172;42.646;23.344;2023-04-09T11:22:52;94733.81;;;10.30;76.63
12219;BME280;6172;42.646;23.344;2023-04-09T11:25:22;94733.13;;;9.92;81.03
12219;BME280;6172;42.646;23.344;2023-04-09T11:27:51;94725.09;;;10.12;91.25
12219;BME280;6172;42.646;23.344;2023-04-09T11:30:20;94739.66;;;9.98;95.40
12219;BME280;6172;42.646;23.344;2023-04-09T11:32:48;94735.47;;;9.90;96.59
12219;BME280;6172;42.646;23.344;2023-04-09T11:35:17;94732.72;;;9.60;98.06
12219;BME280;6172;42.646;23.344;2023-04-09T11:37:46;94726.81;;;9.99;93.86
12219;BME280;6172;42.646;23.344;2023-04-09T11:40:15;94725.16;;;10.08;90.52
12219;BME280;6172;42.646;23.344;2023-04-09T11:42:43;94712.50;;;9.95;82.24
12219;BME280;6172;42.646;23.344;2023-04-09T11:45:14;94724.97;;;9.89;80.38
12219;BME280;6172;42.646;23.344;2023-04-09T11:47:44;94724.63;;;9.87;86.44
12219;BME280;6172;42.646;23.344;2023-04-09T11:50:13;94732.44;;;10.15;80.54
12219;BME280;6172;42.646;23.344;2023-04-09T11:52:45;94721.47;;;10.22;73.43
12219;BME280;6172;42.646;23.344;2023-04-09T11:55:21;94714.09;;;10.19;71.25
12219;BME280;6172;42.646;23.344;2023-04-09T11:57:51;94705.59;;;10.17;67.85
12219;BME280;6172;42.646;23.344;2023-04-09T12:00:21;94726.06;;;10.28;64.45
12219;BME280;6172;42.646;23.344;2023-04-09T12:02:58;94726.19;;;10.18;64.95
12219;BME280;6172;42.646;23.344;2023-04-09T12:05:33;94702.91;;;10.13;65.20
12219;BME280;6172;42.646;23.344;2023-04-09T12:08:07;94715.28;;;10.18;71.76
12219;BME280;6172;42.646;23.344;2023-04-09T12:10:36;94726.22;;;10.14;80.54
12219;BME280;6172;42.646;23.344;2023-04-09T12:13:05;94716.09;;;10.15;79.87
12219;BME280;6172;42.646;23.344;2023-04-09T12:15:35;94712.63;;;10.41;80.54
12219;BME280;6172;42.646;23.344;2023-04-09T12:18:03;94712.47;;;10.52;79.99
12219;BME280;6172;42.646;23.344;2023-04-09T12:20:35;94715.50;;;10.57;74.76
12219;BME280;6172;42.646;23.344;2023-04-09T12:23:04;94697.50;;;10.63;72.25
12219;BME280;6172;42.646;23.344;2023-04-09T12:25:34;94711.72;;;10.74;72.20
12219;BME280;6172;42.646;23.344;2023-04-09T12:28:02;94713.81;;;10.90;70.27
12219;BME280;6172;42.646;23.344;2023-04-09T12:30:30;94703.06;;;11.02;69.34
12219;BME280;6172;42.646;23.344;2023-04-09T12:32:57;94698.41;;;11.03;70.82
12219;BME280;6172;42.646;23.344;2023-04-09T12:35:24;94697.50;;;11.32;68.21
12219;BME280;6172;42.646;23.344;2023-04-09T12:37:54;94692.44;;;11.73;67.55
12219;BME280;6172;42.646;23.344;2023-04-09T12:40:21;94700.88;;;11.98;60.47
12219;BME280;6172;42.646;23.344;2023-04-09T12:42:48;94687.94;;;12.02;59.44
12219;BME280;6172;42.646;23.344;2023-04-09T12:45:17;94686.63;;;12.07;59.69
12219;BME280;6172;42.646;23.344;2023-04-09T12:47:45;94698.59;;;12.13;60.19
12219;BME280;6172;42.646;23.344;2023-04-09T12:50:13;94684.19;;;12.12;59.70
12219;BME280;6172;42.646;23.344;2023-04-09T12:52:41;94686.09;;;11.96;60.22
12219;BME280;6172;42.646;23.344;2023-04-09T12:55:11;94698.13;;;11.98;60.38
12219;BME280;6172;42.646;23.344;2023-04-09T12:57:41;94690.59;;;11.86;61.09
12219;BME280;6172;42.646;23.344;2023-04-09T13:00:17;94683.03;;;11.74;62.36
12219;BME280;6172;42.646;23.344;2023-04-09T13:02:44;94672.63;;;11.69;63.25
12219;BME280;6172;42.646;23.344;2023-04-09T13:05:11;94672.56;;;11.53;62.18
12219;BME280;6172;42.646;23.344;2023-04-09T13:07:39;94677.16;;;11.56;62.40
12219;BME280;6172;42.646;23.344;2023-04-09T13:10:10;94677.25;;;11.72;60.80